createdAt,value
2023-02-12T00:01:50.367Z,63.33
2023-02-12T00:04:19.052Z,53.50
2023-02-12T00:06:48.560Z,58.67
2023-02-12T00:09:17.239Z,55.00
2023-02-12T00:11:45.970Z,57.50
2023-02-12T00:14:15.493Z,65.00
2023-02-12T00:16:44.387Z,60.00
2023-02-12T00:19:13.170Z,61.50
2023-02-12T00:21:42.670Z,58.33
2023-02-12T00:24:12.229Z,62.67
2023-02-12T00:26:40.955Z,63.00
2023-02-12T00:29:11.877Z,67.00
2023-02-12T00:31:40.839Z,56.00
2023-02-12T00:34:12.149Z,60.00
2023-02-12T00:36:40.962Z,60.00
2023-02-12T00:39:11.852Z,67.00
2023-02-12T00:41:41.339Z,64.33
2023-02-12T00:44:10.824Z,65.33
2023-02-12T00:46:40.439Z,66.67
2023-02-12T00:49:09.935Z,64.67
2023-02-12T00:51:39.433Z,69.00
2023-02-12T00:54:08.901Z,66.33
2023-02-12T00:56:38.410Z,72.67
2023-02-12T00:59:08.158Z,77.00
2023-02-12T01:01:37.022Z,65.00
2023-02-12T01:04:05.900Z,62.00
2023-02-12T01:06:34.634Z,58.50
2023-02-12T01:09:03.425Z,61.50
2023-02-12T01:11:32.166Z,64.00
2023-02-12T01:14:01.631Z,64.33
2023-02-12T01:16:31.945Z,63.00
2023-02-12T01:19:01.080Z,56.00
2023-02-12T01:21:34.293Z,59.00
2023-02-12T01:24:03.132Z,63.00
2023-02-12T01:26:33.239Z,61.33
2023-02-12T01:29:06.931Z,67.33
2023-02-12T01:31:40.777Z,61.00
2023-02-12T01:34:09.956Z,58.50
2023-02-12T01:36:37.807Z,59.00
2023-02-12T01:39:07.732Z,60.50
2023-02-12T01:41:42.996Z,60.00
2023-02-12T01:44:26.055Z,61.33
2023-02-12T01:47:04.367Z,57.00
2023-02-12T01:49:37.794Z,60.50
2023-02-12T01:52:32.914Z,60.33
2023-02-12T01:55:07.757Z,65.50
2023-02-12T01:57:44.127Z,69.00
2023-02-12T02:00:22.580Z,64.67
2023-02-12T02:02:59.877Z,68.00
2023-02-12T02:06:07.750Z,62.00
2023-02-12T02:08:39.561Z,69.00
2023-02-12T02:11:27.908Z,62.00
2023-02-12T02:14:15.615Z,59.00
2023-02-12T02:17:26.527Z,70.33
2023-02-12T02:20:40.383Z,58.00
2023-02-12T02:23:40.080Z,59.33
2023-02-12T02:27:06.644Z,78.67
2023-02-12T02:30:32.015Z,68.00
2023-02-12T02:33:24.953Z,63.00
2023-02-12T02:36:05.707Z,64.00
2023-02-12T02:38:53.694Z,63.00
2023-02-12T02:41:37.464Z,60.00
2023-02-12T02:44:32.699Z,67.67
2023-02-12T02:47:09.472Z,59.50
2023-02-12T02:50:19.220Z,67.33
2023-02-12T02:53:08.850Z,67.33
2023-02-12T02:55:50.618Z,62.00
2023-02-12T02:58:31.699Z,67.50
2023-02-12T03:01:33.384Z,56.50
2023-02-12T03:04:47.419Z,69.00
2023-02-12T03:07:46.459Z,61.50
2023-02-12T03:10:29.838Z,64.67
2023-02-12T03:13:17.483Z,62.50
2023-02-12T03:16:02.428Z,63.50
2023-02-12T03:19:12.984Z,63.00
2023-02-12T03:22:09.213Z,65.33
2023-02-12T03:24:56.699Z,65.67
2023-02-12T03:27:34.341Z,74.00
2023-02-12T03:30:05.086Z,91.67
2023-02-12T03:33:07.467Z,64.00
2023-02-12T03:35:56.170Z,68.00
2023-02-12T03:38:39.999Z,60.00
2023-02-12T03:41:35.849Z,63.00
2023-02-12T03:44:46.772Z,63.00
2023-02-12T03:47:42.259Z,75.00
2023-02-12T03:50:32.444Z,74.50
2023-02-12T03:53:02.085Z,78.67
2023-02-12T03:55:38.415Z,69.67
2023-02-12T03:58:15.175Z,70.67
2023-02-12T04:00:44.952Z,74.67
2023-02-12T04:03:13.839Z,69.50
2023-02-12T04:05:42.559Z,66.50
2023-02-12T04:08:13.784Z,67.50
2023-02-12T04:11:33.917Z,80.33
2023-02-12T04:14:38.254Z,70.00
2023-02-12T04:17:43.184Z,77.67
2023-02-12T04:20:24.193Z,83.33
2023-02-12T04:23:36.019Z,94.67
2023-02-12T04:26:49.383Z,107.33
2023-02-12T04:29:54.491Z,120.33
2023-02-12T04:32:47.005Z,96.33
2023-02-12T04:35:35.264Z,95.67
2023-02-12T04:38:17.565Z,122.00
2023-02-12T04:40:49.055Z,116.67
2023-02-12T04:43:37.271Z,133.50
2023-02-12T04:46:09.328Z,96.00
2023-02-12T04:48:56.133Z,77.67
2023-02-12T04:51:25.355Z,74.00
2023-02-12T04:53:54.934Z,95.00
2023-02-12T04:56:23.654Z,77.50
2023-02-12T04:58:53.861Z,90.67
2023-02-12T05:01:24.917Z,83.67
2023-02-12T05:03:53.853Z,85.50
2023-02-12T05:06:23.511Z,85.00
2023-02-12T05:08:56.776Z,83.00
2023-02-12T05:11:26.469Z,86.00
2023-02-12T05:13:55.357Z,80.00
2023-02-12T05:16:25.949Z,81.00
2023-02-12T05:18:55.473Z,88.00
2023-02-12T05:21:25.013Z,87.67
2023-02-12T05:23:54.560Z,87.67
2023-02-12T05:26:24.290Z,85.33
2023-02-12T05:28:53.787Z,81.00
2023-02-12T05:31:23.573Z,83.00
2023-02-12T05:33:53.422Z,78.33
2023-02-12T05:36:25.220Z,88.67
2023-02-12T05:39:00.361Z,81.00
2023-02-12T05:41:34.919Z,84.00
2023-02-12T05:44:06.727Z,80.33
2023-02-12T05:46:35.621Z,68.50
2023-02-12T05:49:03.874Z,68.00
2023-02-12T05:51:33.272Z,68.00
2023-02-12T05:54:05.272Z,64.00
2023-02-12T05:56:52.090Z,71.00
2023-02-12T05:59:24.200Z,67.00
2023-02-12T06:01:53.332Z,68.00
2023-02-12T06:04:28.454Z,75.67
2023-02-12T06:06:57.795Z,78.50
2023-02-12T06:09:27.491Z,91.67
2023-02-12T06:12:13.231Z,105.33
2023-02-12T06:14:43.447Z,104.00
2023-02-12T06:17:13.135Z,100.00
2023-02-12T06:19:42.814Z,109.33
2023-02-12T06:22:12.465Z,95.33
2023-02-12T06:24:42.132Z,104.33
2023-02-12T06:27:11.708Z,98.67
2023-02-12T06:29:41.362Z,101.67
2023-02-12T06:32:13.719Z,129.67
2023-02-12T06:34:43.468Z,105.00
2023-02-12T06:37:13.159Z,109.00
2023-02-12T06:39:42.803Z,128.67
2023-02-12T06:42:12.866Z,101.00
2023-02-12T06:44:42.500Z,97.33
2023-02-12T06:47:12.200Z,94.00
2023-02-12T06:49:41.832Z,89.00
2023-02-12T06:52:11.417Z,88.67
2023-02-12T06:54:41.254Z,96.00
2023-02-12T06:57:10.802Z,85.67
2023-02-12T06:59:40.352Z,89.00
2023-02-12T07:02:12.255Z,87.00
2023-02-12T07:04:41.989Z,83.67
2023-02-12T07:07:11.612Z,90.33
2023-02-12T07:09:41.261Z,94.33
2023-02-12T07:12:10.866Z,89.33
2023-02-12T07:14:40.415Z,83.33
2023-02-12T07:17:10.381Z,92.67
2023-02-12T07:19:39.990Z,98.00
2023-02-12T07:22:09.655Z,101.67
2023-02-12T07:24:39.477Z,97.67
2023-02-12T07:27:08.944Z,84.00
2023-02-12T07:29:38.489Z,83.33
2023-02-12T07:32:08.196Z,84.67
2023-02-12T07:34:37.872Z,84.00
2023-02-12T07:37:07.887Z,87.33
2023-02-12T07:39:36.572Z,78.67
2023-02-12T07:42:06.198Z,91.50
2023-02-12T07:44:36.250Z,82.00
2023-02-12T07:47:06.215Z,85.33
2023-02-12T07:49:35.991Z,167.33
2023-02-12T07:52:06.549Z,269.00
2023-02-12T07:54:36.160Z,97.00
2023-02-12T07:57:05.843Z,96.67
2023-02-12T07:59:35.666Z,88.00
2023-02-12T08:02:05.375Z,84.67
2023-02-12T08:04:35.044Z,94.00
2023-02-12T08:07:04.659Z,96.00
2023-02-12T08:09:34.356Z,87.00
2023-02-12T08:12:04.208Z,93.33
2023-02-12T08:14:34.824Z,205.25
2023-02-12T08:17:05.276Z,102.25
2023-02-12T08:19:35.539Z,95.33
2023-02-12T08:22:06.634Z,90.33
2023-02-12T08:24:36.310Z,92.33
2023-02-12T08:27:06.407Z,98.33
2023-02-12T08:29:36.035Z,109.67
2023-02-12T08:32:10.702Z,117.75
2023-02-12T08:34:38.581Z,135.50
2023-02-12T08:37:09.083Z,126.00
2023-02-12T08:39:36.871Z,124.50
2023-02-12T08:42:06.685Z,118.33
2023-02-12T08:44:37.211Z,96.00
2023-02-12T08:47:07.286Z,115.00
2023-02-12T08:49:37.809Z,120.00
2023-02-12T08:52:07.499Z,132.50
2023-02-12T08:54:38.007Z,147.25
2023-02-12T08:57:05.942Z,151.50
2023-02-12T08:59:35.548Z,91.00
2023-02-12T09:02:08.900Z,110.25
2023-02-12T09:04:37.165Z,111.00
2023-02-12T09:07:10.645Z,117.75
2023-02-12T09:09:38.722Z,114.00
2023-02-12T09:12:08.325Z,132.00
2023-02-12T09:14:38.365Z,114.75
2023-02-12T09:17:08.226Z,102.67
2023-02-12T09:19:37.867Z,95.00
2023-02-12T09:22:07.550Z,101.00
2023-02-12T09:24:38.736Z,109.00
2023-02-12T09:27:08.310Z,113.50
2023-02-12T09:29:38.836Z,103.50
2023-02-12T09:32:10.610Z,123.50
2023-02-12T09:34:40.336Z,106.33
2023-02-12T09:37:09.950Z,98.00
2023-02-12T09:39:40.767Z,106.00
2023-02-12T09:42:14.085Z,102.00
2023-02-12T09:45:27.005Z,157.00
2023-02-12T09:48:15.514Z,113.50
2023-02-12T09:50:59.521Z,113.50
2023-02-12T09:53:32.275Z,109.25
2023-02-12T09:56:02.733Z,118.25
2023-02-12T09:59:00.294Z,110.25
2023-02-12T10:01:31.339Z,124.67
2023-02-12T10:04:01.759Z,184.33
2023-02-12T10:06:50.147Z,110.67
2023-02-12T10:09:49.228Z,138.00
2023-02-12T10:13:00.709Z,102.00
2023-02-12T10:15:51.961Z,110.75
2023-02-12T10:18:44.725Z,100.67
2023-02-12T10:21:44.476Z,100.33
2023-02-12T10:24:38.741Z,98.33
2023-02-12T10:27:23.170Z,110.00
2023-02-12T10:29:53.917Z,102.00
2023-02-12T10:32:38.918Z,135.43
2023-02-12T10:35:19.353Z,104.75
2023-02-12T10:38:02.209Z,142.00
2023-02-12T10:40:39.209Z,123.75
2023-02-12T10:43:14.180Z,95.00
2023-02-12T10:45:45.154Z,90.33
2023-02-12T10:48:35.657Z,87.67
2023-02-12T10:51:42.236Z,112.00
2023-02-12T10:54:36.599Z,88.67
2023-02-12T10:57:26.687Z,107.33
2023-02-12T11:00:19.855Z,121.00
2023-02-12T11:03:12.485Z,90.00
2023-02-12T11:05:44.796Z,87.33
2023-02-12T11:08:38.325Z,87.67
2023-02-12T11:11:31.816Z,92.33
2023-02-12T11:14:05.606Z,99.00
2023-02-12T11:16:44.248Z,90.33
2023-02-12T11:19:31.348Z,92.33
2023-02-12T11:22:18.833Z,89.33
2023-02-12T11:25:03.187Z,98.00
2023-02-12T11:27:32.729Z,91.67
2023-02-12T11:30:29.906Z,84.33
2023-02-12T11:33:35.558Z,88.00
2023-02-12T11:36:23.748Z,85.33
2023-02-12T11:38:58.215Z,91.00
2023-02-12T11:41:38.548Z,81.67
2023-02-12T11:44:27.140Z,81.33
2023-02-12T11:47:12.244Z,83.67
2023-02-12T11:50:04.805Z,78.00
2023-02-12T11:52:38.212Z,75.33
2023-02-12T11:55:33.824Z,67.00
2023-02-12T11:58:15.862Z,82.00
2023-02-12T12:01:03.168Z,73.00
2023-02-12T12:04:01.109Z,64.67
2023-02-12T12:07:22.072Z,69.67
2023-02-12T12:10:20.802Z,64.50
2023-02-12T12:12:59.956Z,68.67
2023-02-12T12:15:56.038Z,68.00
2023-02-12T12:19:13.218Z,63.33
2023-02-12T12:22:21.546Z,77.33
2023-02-12T12:24:58.349Z,65.67
2023-02-12T12:28:29.159Z,61.00
2023-02-12T12:31:22.738Z,56.00
2023-02-12T12:33:56.068Z,55.00
2023-02-12T12:37:14.325Z,69.25
2023-02-12T12:41:04.424Z,52.50
2023-02-12T12:43:56.098Z,52.67
2023-02-12T12:47:02.096Z,59.00
2023-02-12T12:50:43.340Z,58.33
2023-02-12T12:53:48.698Z,52.00
2023-02-12T12:56:57.788Z,50.67
2023-02-12T12:59:59.316Z,48.67
2023-02-12T13:03:01.774Z,41.50
2023-02-12T13:06:23.638Z,55.00
2023-02-12T13:09:39.618Z,60.33
2023-02-12T13:12:48.018Z,48.67
2023-02-12T13:15:46.619Z,54.00
2023-02-12T13:19:09.580Z,51.67
2023-02-12T13:22:37.589Z,72.33
2023-02-12T13:25:34.608Z,59.67
2023-02-12T13:28:06.857Z,48.67
2023-02-12T13:30:47.731Z,66.33
2023-02-12T13:34:00.154Z,57.00
2023-02-12T13:36:28.965Z,43.00
2023-02-12T13:39:36.745Z,48.00
2023-02-12T13:42:13.243Z,49.67
2023-02-12T13:45:11.673Z,50.00
2023-02-12T13:48:24.081Z,44.50
2023-02-12T13:51:15.974Z,48.67
2023-02-12T13:54:20.674Z,49.67
2023-02-12T13:57:01.006Z,44.00
2023-02-12T13:59:34.200Z,35.33
2023-02-12T14:02:34.381Z,51.67
2023-02-12T14:05:26.333Z,44.00
2023-02-12T14:08:06.106Z,47.67
2023-02-12T14:10:43.033Z,36.67
2023-02-12T14:13:19.052Z,47.00
2023-02-12T14:15:56.753Z,44.00
2023-02-12T14:18:37.093Z,35.00
2023-02-12T14:21:17.210Z,44.50
2023-02-12T14:23:50.106Z,51.00
2023-02-12T14:26:24.865Z,38.00
2023-02-12T14:29:21.307Z,32.67
2023-02-12T14:31:50.851Z,33.33
2023-02-12T14:34:22.615Z,37.33
2023-02-12T14:37:18.125Z,36.33
2023-02-12T14:39:47.565Z,47.67
2023-02-12T14:42:16.959Z,30.33
2023-02-12T14:44:59.445Z,33.00
2023-02-12T14:47:31.783Z,43.33
2023-02-12T14:50:23.121Z,41.00
2023-02-12T14:53:24.987Z,39.33
2023-02-12T14:55:55.332Z,25.67
2023-02-12T14:58:26.306Z,44.50
2023-02-12T15:01:00.053Z,45.50
2023-02-12T15:03:38.637Z,52.33
2023-02-12T15:06:21.308Z,57.00
2023-02-12T15:09:11.861Z,54.00
2023-02-12T15:11:53.253Z,65.00
2023-02-12T15:14:36.304Z,66.33
2023-02-12T15:17:29.867Z,65.00
2023-02-12T15:20:18.593Z,56.00
2023-02-12T15:22:47.541Z,50.00
2023-02-12T15:25:31.963Z,56.50
2023-02-12T15:28:33.676Z,52.67
2023-02-12T15:31:10.717Z,56.75
2023-02-12T15:33:50.032Z,59.33
2023-02-12T15:36:24.700Z,58.67
2023-02-12T15:39:05.601Z,68.67
2023-02-12T15:41:40.517Z,79.33
2023-02-12T15:44:32.364Z,80.00
2023-02-12T15:47:16.427Z,84.00
2023-02-12T15:49:45.937Z,82.33
2023-02-12T15:52:24.903Z,84.33
2023-02-12T15:54:54.631Z,84.00
2023-02-12T15:57:25.248Z,79.67
2023-02-12T16:00:06.724Z,80.67
2023-02-12T16:02:36.531Z,86.33
2023-02-12T16:05:07.744Z,89.67
2023-02-12T16:07:39.697Z,88.67
2023-02-12T16:10:18.803Z,90.33
2023-02-12T16:12:51.301Z,124.50
2023-02-12T16:15:35.534Z,111.33
2023-02-12T16:18:06.897Z,88.00
2023-02-12T16:20:37.107Z,82.00
2023-02-12T16:23:08.434Z,87.00
2023-02-12T16:25:39.143Z,84.00
2023-02-12T16:28:22.357Z,86.67
2023-02-12T16:30:53.387Z,88.33
2023-02-12T16:33:40.999Z,80.67
2023-02-12T16:36:31.549Z,83.67
2023-02-12T16:39:05.817Z,86.00
2023-02-12T16:41:56.014Z,87.00
2023-02-12T16:44:31.682Z,87.00
2023-02-12T16:47:02.928Z,81.67
2023-02-12T16:49:32.473Z,81.00
2023-02-12T16:52:39.814Z,91.00
2023-02-12T16:55:18.550Z,77.67
2023-02-12T16:57:47.131Z,57.33
2023-02-12T17:00:18.793Z,80.67
2023-02-12T17:02:48.654Z,76.00
2023-02-12T17:05:18.795Z,78.00
2023-02-12T17:07:48.432Z,79.67
2023-02-12T17:10:18.867Z,81.33
2023-02-12T17:12:53.467Z,86.00
2023-02-12T17:15:56.856Z,122.00
2023-02-12T17:18:26.881Z,108.00
2023-02-12T17:21:02.360Z,109.67
2023-02-12T17:23:35.007Z,121.67
2023-02-12T17:26:07.872Z,166.50
2023-02-12T17:28:35.829Z,163.00
2023-02-12T17:31:07.250Z,136.00
2023-02-12T17:33:38.407Z,133.25
2023-02-12T17:36:10.412Z,133.50
2023-02-12T17:38:38.241Z,131.50
2023-02-12T17:41:12.388Z,196.00
2023-02-12T17:43:42.938Z,182.50
2023-02-12T17:46:24.613Z,183.25
2023-02-12T17:48:56.527Z,151.75
2023-02-12T17:51:26.751Z,204.25
2023-02-12T17:53:56.466Z,201.00
2023-02-12T17:56:26.849Z,208.50
2023-02-12T17:58:56.613Z,193.25
2023-02-12T18:01:24.831Z,192.50
2023-02-12T18:03:55.945Z,183.50
2023-02-12T18:06:30.859Z,164.00
2023-02-12T18:09:04.130Z,176.75
2023-02-12T18:11:36.352Z,158.20
2023-02-12T18:14:06.325Z,144.25
2023-02-12T18:16:36.434Z,103.67
2023-02-12T18:19:06.533Z,118.67
2023-02-12T18:21:37.205Z,127.50
2023-02-12T18:24:07.735Z,117.67
2023-02-12T18:26:38.220Z,142.00
2023-02-12T18:29:08.653Z,142.67
2023-02-12T18:31:39.526Z,138.50
2023-02-12T18:34:10.318Z,162.75
2023-02-12T18:36:40.900Z,155.25
2023-02-12T18:39:11.549Z,171.50
2023-02-12T18:41:39.393Z,163.00
2023-02-12T18:44:19.109Z,130.67
2023-02-12T18:46:48.734Z,109.33
2023-02-12T18:49:18.420Z,87.67
2023-02-12T18:51:48.077Z,98.33
2023-02-12T18:54:17.713Z,91.67
2023-02-12T18:56:52.374Z,94.67
2023-02-12T18:59:22.778Z,94.33
2023-02-12T19:01:53.131Z,107.00
2023-02-12T19:04:27.912Z,113.67
2023-02-12T19:06:57.815Z,107.00
2023-02-12T19:09:28.208Z,121.00
2023-02-12T19:12:00.385Z,140.50
2023-02-12T19:14:30.936Z,124.50
2023-02-12T19:16:59.060Z,171.50
2023-02-12T19:19:29.822Z,205.25
2023-02-12T19:21:59.525Z,233.25
2023-02-12T19:24:44.447Z,164.25
2023-02-12T19:27:19.472Z,227.75
2023-02-12T19:29:49.269Z,224.00
2023-02-12T19:32:20.739Z,174.25
2023-02-12T19:34:51.369Z,151.75
2023-02-12T19:37:22.164Z,153.25
2023-02-12T19:39:51.840Z,124.00
2023-02-12T19:42:21.477Z,111.33
2023-02-12T19:44:51.556Z,137.50
2023-02-12T19:47:22.157Z,137.50
2023-02-12T19:49:52.689Z,124.75
2023-02-12T19:52:22.457Z,110.00
2023-02-12T19:54:52.253Z,167.25
2023-02-12T19:57:21.018Z,175.50
2023-02-12T19:59:50.792Z,121.67
2023-02-12T20:02:21.374Z,157.25
2023-02-12T20:04:49.198Z,137.00
2023-02-12T20:07:18.875Z,102.00
2023-02-12T20:09:52.334Z,87.33
2023-02-12T20:12:21.959Z,94.00
2023-02-12T20:14:53.862Z,86.00
2023-02-12T20:17:23.492Z,89.67
2023-02-12T20:19:53.123Z,80.67
2023-02-12T20:22:24.644Z,82.33
2023-02-12T20:24:54.835Z,80.33
2023-02-12T20:27:23.541Z,64.50
2023-02-12T20:29:53.160Z,74.67
2023-02-12T20:32:22.641Z,72.67
2023-02-12T20:34:53.308Z,78.33
2023-02-12T20:37:22.025Z,67.00
2023-02-12T20:39:50.792Z,64.00
2023-02-12T20:42:20.269Z,62.33
2023-02-12T20:44:49.084Z,60.00
2023-02-12T20:47:18.593Z,79.67
2023-02-12T20:49:47.330Z,48.00
2023-02-12T20:52:16.161Z,62.00
2023-02-12T20:54:46.415Z,61.00
2023-02-12T20:57:17.379Z,70.00
2023-02-12T20:59:50.012Z,71.33
2023-02-12T21:02:18.690Z,56.00
2023-02-12T21:04:50.645Z,46.00
2023-02-12T21:07:19.658Z,53.67
2023-02-12T21:09:50.290Z,48.00
2023-02-12T21:12:19.591Z,50.50
2023-02-12T21:14:48.324Z,49.00
2023-02-12T21:17:20.256Z,48.00
2023-02-12T21:19:49.748Z,79.33
2023-02-12T21:22:18.568Z,73.00
2023-02-12T21:24:48.094Z,73.67
2023-02-12T21:27:18.008Z,92.33
2023-02-12T21:29:48.085Z,131.00
2023-02-12T21:32:17.994Z,251.00
2023-02-12T21:34:48.950Z,212.75
2023-02-12T21:37:18.742Z,233.00
2023-02-12T21:39:48.386Z,249.50
2023-02-12T21:42:18.051Z,236.50
2023-02-12T21:44:47.588Z,96.00
2023-02-12T21:47:17.268Z,104.33
2023-02-12T21:49:47.717Z,118.75
2023-02-12T21:52:18.199Z,108.50
2023-02-12T21:54:47.808Z,95.00
2023-02-12T21:57:19.990Z,112.67
2023-02-12T21:59:49.603Z,108.33
2023-02-12T22:02:19.330Z,113.67
2023-02-12T22:04:49.394Z,88.00
2023-02-12T22:07:18.989Z,86.67
2023-02-12T22:09:48.519Z,91.00
2023-02-12T22:12:18.072Z,92.33
2023-02-12T22:14:47.649Z,89.67
2023-02-12T22:17:17.297Z,85.33
2023-02-12T22:19:46.797Z,79.00
2023-02-12T22:22:15.493Z,66.00
2023-02-12T22:24:44.324Z,64.50
2023-02-12T22:27:13.834Z,68.33
2023-02-12T22:29:43.428Z,96.00
2023-02-12T22:32:13.017Z,95.00
2023-02-12T22:34:42.603Z,82.67
2023-02-12T22:37:12.166Z,83.33
2023-02-12T22:39:40.886Z,76.50
2023-02-12T22:42:10.841Z,80.67
2023-02-12T22:44:40.356Z,86.67
2023-02-12T22:47:09.931Z,85.33
2023-02-12T22:49:39.463Z,74.33
2023-02-12T22:52:08.927Z,72.33
2023-02-12T22:54:37.663Z,68.50
2023-02-12T22:57:05.445Z,65.00
2023-02-12T22:59:34.165Z,66.50
2023-02-12T23:02:04.321Z,69.33
2023-02-12T23:04:33.848Z,67.00
2023-02-12T23:07:03.524Z,75.67
2023-02-12T23:09:32.369Z,70.00
2023-02-12T23:12:01.044Z,70.00
2023-02-12T23:14:29.782Z,72.50
2023-02-12T23:16:57.592Z,73.00
2023-02-12T23:19:25.489Z,66.00
2023-02-12T23:21:54.183Z,65.00
2023-02-12T23:24:24.681Z,68.00
2023-02-12T23:26:54.557Z,67.00
2023-02-12T23:29:22.493Z,64.00
2023-02-12T23:31:51.246Z,67.50
2023-02-12T23:34:20.736Z,70.67
2023-02-12T23:36:49.479Z,70.50
2023-02-12T23:39:18.976Z,88.67
2023-02-12T23:41:48.516Z,98.00
2023-02-12T23:44:18.141Z,97.33
2023-02-12T23:46:51.996Z,97.33
2023-02-12T23:49:21.586Z,96.33
2023-02-12T23:51:51.242Z,97.00
2023-02-12T23:54:20.771Z,93.00
2023-02-12T23:56:50.242Z,90.67
2023-02-12T23:59:19.942Z,88.00
